Home > Products > Valid Products > TAF

000
FTUS42 KKEY 230500
TAFEYW
TAF
KEYW 230520Z 2306/2406 32006KT P6SM FEW020=



000
FTUS42 KKEY 222300
TAFEYW
TAF
KEYW 222328Z 2300/2324 32009KT P6SM FEW025=



000
FTUS42 KKEY 221900 AAA
TAFEYW
TAF AMD
KEYW 221927Z 2219/2318 34010G15KT P6SM SCT025 SCT040=



000
FTUS42 KKEY 221700
TAFEYW
TAF
KEYW 221737Z 2218/2318 32010G15KT P6SM SCT025 SCT040=



000
FTUS42 KKEY 221500 AAA
TAFEYW
TAF AMD
KEYW 221505Z 2215/2312 VRB05KT P6SM SCT020 BKN040
     FM221800 29009KT P6SM FEW020=



000
FTUS42 KKEY 221200 RRA
TAFEYW
TAF
KEYW 221217Z 2212/2312 VRB05KT P6SM FEW020 SCT040
     FM221800 29009KT P6SM FEW020=



000
FTUS42 KKEY 220900 AAA
TAFEYW
TAF AMD
KEYW 220902Z 2209/2306 VRB06KT P6SM FEW020 SCT040
     FM221800 27007KT P6SM FEW020=



000
FTUS42 KKEY 220500
TAFEYW
TAF
KEYW 220523Z 2206/2306 35008KT P6SM FEW015 SCT020
      TEMPO 2206/2208 BKN020
     FM220800 VRB06KT P6SM FEW020
     FM221800 27007KT P6SM FEW020=



000
FTUS42 KKEY 220400 AAB
TAFEYW
TAF AMD
KEYW 220436Z 2205/2224 35006KT P6SM SCT020
      TEMPO 2205/2207 BKN020
     FM220700 VRB05KT P6SM FEW020
     FM221500 32007KT P6SM FEW022=



000
FTUS42 KKEY 220200 AAA
TAFEYW
TAF AMD
KEYW 220248Z 2203/2224 34011KT P6SM FEW020
     FM220600 VRB03KT P6SM SKC
     FM221500 32007KT P6SM FEW022=



000
FTUS42 KKEY 212300
TAFEYW
TAF
KEYW 212322Z 2200/2224 34011KT P6SM FEW020
     FM220300 VRB03KT P6SM SKC
     FM221500 32007KT P6SM FEW022=



000
FTUS42 KKEY 211700
TAFEYW
TAF
KEYW 211739Z 2118/2218 01010KT P6SM FEW020
     FM220300 02003KT P6SM SKC=



000
FTUS42 KKEY 211400 AAA
TAFEYW
TAF AMD
KEYW 211444Z 2115/2212 01009KT P6SM FEW025
     FM220300 02003KT P6SM SKC=



000
FTUS42 KKEY 211100
TAFEYW
TAF
KEYW 211130Z 2112/2212 03008KT P6SM FEW025
     FM220300 36003KT P6SM SKC=



000
FTUS42 KKEY 210900 AAA
TAFEYW
TAF AMD
KEYW 210905Z 2109/2206 03008KT P6SM FEW025=



000
FTUS42 KKEY 210500
TAFEYW
TAF
KEYW 210521Z 2106/2206 35008KT P6SM SCT030 BKN040
     FM210900 02008KT P6SM SCT029=



000
FTUS42 KKEY 202300
TAFEYW
TAF
KEYW 202320Z 2100/2124 34008KT P6SM SCT030 BKN040
     FM210900 02008KT P6SM SCT028=



000
FTUS42 KKEY 201700
TAFEYW
TAF
KEYW 201734Z 2018/2118 33010G16KT P6SM SCT035
     FM210000 34008KT P6SM FEW030
     FM210900 02010KT P6SM SCT028=



000
FTUS42 KKEY 201500 AAA
TAFEYW
TAF AMD
KEYW 201505Z 2015/2112 30010KT P6SM SCT040
     FM210900 02008KT P6SM BKN030=



000
FTUS42 KKEY 201100
TAFEYW
TAF
KEYW 201137Z 2012/2112 30010KT P6SM BKN035
      TEMPO 2012/2013 OVC035
     FM201800 32009KT P6SM SCT040
     FM210900 02008KT P6SM BKN030=



000
FTUS42 KKEY 200800 AAA
TAFEYW
TAF AMD
KEYW 200834Z 2009/2106 31008KT P6SM BKN035
     FM201600 32008KT P6SM SCT035=



    US Dept of Commerce
    National Oceanic and Atmospheric Administration
    National Weather Service
    1325 East West Highway
    Silver Spring, MD 20910
    Page Author: NWS Internet Services Team
Disclaimer
Information Quality
Credits
Glossary
Privacy Policy
Freedom of Information Act (FOIA)
About Us
Career Opportunities